sensor_id;sensor_type;location;lat;lon;timestamp;P1;durP1;ratioP1;P2;durP2;ratioP2
55069;SDS011;40967;52.070;8.596;2022-12-29T00:01:29;1.20;;;0.73;;
55069;SDS011;40967;52.070;8.596;2022-12-29T00:03:54;1.80;;;0.80;;
55069;SDS011;40967;52.070;8.596;2022-12-29T00:06:20;2.03;;;0.80;;
55069;SDS011;40967;52.070;8.596;2022-12-29T00:08:45;1.77;;;0.95;;
55069;SDS011;40967;52.070;8.596;2022-12-29T00:11:12;1.40;;;0.70;;
55069;SDS011;40967;52.070;8.596;2022-12-29T00:13:39;0.90;;;0.60;;
55069;SDS011;40967;52.070;8.596;2022-12-29T00:16:23;1.50;;;0.90;;
55069;SDS011;40967;52.070;8.596;2022-12-29T00:18:49;1.27;;;0.70;;
55069;SDS011;40967;52.070;8.596;2022-12-29T00:21:15;1.50;;;0.70;;
55069;SDS011;40967;52.070;8.596;2022-12-29T00:24:00;1.48;;;0.73;;
55069;SDS011;40967;52.070;8.596;2022-12-29T00:26:46;1.80;;;0.70;;
55069;SDS011;40967;52.070;8.596;2022-12-29T00:29:31;1.60;;;0.88;;
55069;SDS011;40967;52.070;8.596;2022-12-29T00:32:15;1.80;;;0.90;;
55069;SDS011;40967;52.070;8.596;2022-12-29T00:34:59;1.20;;;0.60;;
55069;SDS011;40967;52.070;8.596;2022-12-29T00:37:34;1.80;;;0.70;;
55069;SDS011;40967;52.070;8.596;2022-12-29T00:40:21;1.50;;;0.80;;
55069;SDS011;40967;52.070;8.596;2022-12-29T00:43:05;1.45;;;0.75;;
55069;SDS011;40967;52.070;8.596;2022-12-29T00:45:49;2.03;;;0.80;;
55069;SDS011;40967;52.070;8.596;2022-12-29T00:48:14;1.58;;;0.80;;
55069;SDS011;40967;52.070;8.596;2022-12-29T00:50:40;1.63;;;0.73;;
55069;SDS011;40967;52.070;8.596;2022-12-29T00:53:05;1.27;;;0.70;;
55069;SDS011;40967;52.070;8.596;2022-12-29T00:55:30;1.60;;;0.67;;
55069;SDS011;40967;52.070;8.596;2022-12-29T00:57:56;1.80;;;0.67;;
55069;SDS011;40967;52.070;8.596;2022-12-29T01:00:21;1.27;;;0.70;;
55069;SDS011;40967;52.070;8.596;2022-12-29T01:02:46;1.58;;;0.70;;
55069;SDS011;40967;52.070;8.596;2022-12-29T01:05:12;1.30;;;0.60;;
55069;SDS011;40967;52.070;8.596;2022-12-29T01:07:37;1.93;;;0.70;;
55069;SDS011;40967;52.070;8.596;2022-12-29T01:10:02;1.60;;;0.67;;
55069;SDS011;40967;52.070;8.596;2022-12-29T01:12:37;2.00;;;0.80;;
55069;SDS011;40967;52.070;8.596;2022-12-29T01:15:06;1.10;;;0.70;;
55069;SDS011;40967;52.070;8.596;2022-12-29T01:17:33;0.90;;;0.60;;
55069;SDS011;40967;52.070;8.596;2022-12-29T01:19:59;1.73;;;0.70;;
55069;SDS011;40967;52.070;8.596;2022-12-29T01:22:25;1.03;;;0.60;;
55069;SDS011;40967;52.070;8.596;2022-12-29T01:24:50;1.30;;;0.60;;
55069;SDS011;40967;52.070;8.596;2022-12-29T01:27:15;1.73;;;0.67;;
55069;SDS011;40967;52.070;8.596;2022-12-29T01:29:41;0.87;;;0.50;;
55069;SDS011;40967;52.070;8.596;2022-12-29T01:32:06;1.60;;;0.70;;
55069;SDS011;40967;52.070;8.596;2022-12-29T01:34:31;1.00;;;0.50;;
55069;SDS011;40967;52.070;8.596;2022-12-29T01:36:57;1.00;;;0.70;;
55069;SDS011;40967;52.070;8.596;2022-12-29T01:39:22;1.00;;;0.50;;
55069;SDS011;40967;52.070;8.596;2022-12-29T01:41:47;0.90;;;0.50;;
55069;SDS011;40967;52.070;8.596;2022-12-29T01:49:52;1.40;;;0.50;;
55069;SDS011;40967;52.070;8.596;2022-12-29T01:52:20;1.30;;;0.43;;
55069;SDS011;40967;52.070;8.596;2022-12-29T01:54:50;1.27;;;0.43;;
55069;SDS011;40967;52.070;8.596;2022-12-29T01:57:23;0.98;;;0.40;;
55069;SDS011;40967;52.070;8.596;2022-12-29T01:59:56;0.95;;;0.45;;
55069;SDS011;40967;52.070;8.596;2022-12-29T02:02:26;1.40;;;0.50;;
55069;SDS011;40967;52.070;8.596;2022-12-29T02:04:52;0.90;;;0.47;;
55069;SDS011;40967;52.070;8.596;2022-12-29T02:07:22;0.90;;;0.40;;
55069;SDS011;40967;52.070;8.596;2022-12-29T02:09:51;0.47;;;0.43;;
55069;SDS011;40967;52.070;8.596;2022-12-29T02:12:19;1.20;;;0.50;;
55069;SDS011;40967;52.070;8.596;2022-12-29T02:14:47;0.85;;;0.40;;
55069;SDS011;40967;52.070;8.596;2022-12-29T02:42:23;0.87;;;0.30;;
55069;SDS011;40967;52.070;8.596;2022-12-29T02:44:58;0.90;;;0.40;;
55069;SDS011;40967;52.070;8.596;2022-12-29T02:50:14;1.50;;;0.40;;
55069;SDS011;40967;52.070;8.596;2022-12-29T02:52:46;0.60;;;0.30;;
55069;SDS011;40967;52.070;8.596;2022-12-29T02:55:16;0.70;;;0.40;;
55069;SDS011;40967;52.070;8.596;2022-12-29T02:57:41;0.40;;;0.30;;
55069;SDS011;40967;52.070;8.596;2022-12-29T03:00:08;0.40;;;0.20;;
55069;SDS011;40967;52.070;8.596;2022-12-29T03:08:39;0.73;;;0.30;;
55069;SDS011;40967;52.070;8.596;2022-12-29T03:11:09;0.30;;;0.20;;
55069;SDS011;40967;52.070;8.596;2022-12-29T03:14:02;0.40;;;0.22;;
55069;SDS011;40967;52.070;8.596;2022-12-29T03:16:52;0.35;;;0.20;;
55069;SDS011;40967;52.070;8.596;2022-12-29T03:19:23;0.35;;;0.20;;
55069;SDS011;40967;52.070;8.596;2022-12-29T03:22:04;0.43;;;0.30;;
55069;SDS011;40967;52.070;8.596;2022-12-29T03:24:52;0.52;;;0.30;;
55069;SDS011;40967;52.070;8.596;2022-12-29T03:27:32;0.80;;;0.40;;
55069;SDS011;40967;52.070;8.596;2022-12-29T03:30:03;0.70;;;0.30;;
55069;SDS011;40967;52.070;8.596;2022-12-29T03:32:32;0.90;;;0.30;;
55069;SDS011;40967;52.070;8.596;2022-12-29T03:35:01;0.45;;;0.30;;
55069;SDS011;40967;52.070;8.596;2022-12-29T03:37:30;0.68;;;0.30;;
55069;SDS011;40967;52.070;8.596;2022-12-29T03:40:03;0.50;;;0.28;;
55069;SDS011;40967;52.070;8.596;2022-12-29T03:42:29;1.02;;;0.40;;
55069;SDS011;40967;52.070;8.596;2022-12-29T03:44:57;1.37;;;0.40;;
55069;SDS011;40967;52.070;8.596;2022-12-29T03:47:23;2.25;;;0.90;;
55069;SDS011;40967;52.070;8.596;2022-12-29T03:49:49;2.22;;;0.70;;
55069;SDS011;40967;52.070;8.596;2022-12-29T03:52:15;2.30;;;0.90;;
55069;SDS011;40967;52.070;8.596;2022-12-29T03:54:40;4.10;;;1.70;;
55069;SDS011;40967;52.070;8.596;2022-12-29T03:57:06;3.60;;;1.20;;
55069;SDS011;40967;52.070;8.596;2022-12-29T03:59:31;2.97;;;1.00;;
55069;SDS011;40967;52.070;8.596;2022-12-29T04:01:57;3.25;;;1.15;;
55069;SDS011;40967;52.070;8.596;2022-12-29T04:04:22;2.43;;;0.90;;
55069;SDS011;40967;52.070;8.596;2022-12-29T04:06:50;1.67;;;0.70;;
55069;SDS011;40967;52.070;8.596;2022-12-29T04:09:15;0.97;;;0.40;;
55069;SDS011;40967;52.070;8.596;2022-12-29T04:11:40;0.65;;;0.38;;
55069;SDS011;40967;52.070;8.596;2022-12-29T04:14:06;0.80;;;0.30;;
55069;SDS011;40967;52.070;8.596;2022-12-29T04:16:31;1.43;;;0.40;;
55069;SDS011;40967;52.070;8.596;2022-12-29T04:18:58;0.43;;;0.30;;
55069;SDS011;40967;52.070;8.596;2022-12-29T04:21:23;0.98;;;0.30;;
55069;SDS011;40967;52.070;8.596;2022-12-29T04:23:49;0.50;;;0.20;;
55069;SDS011;40967;52.070;8.596;2022-12-29T04:26:14;1.87;;;0.30;;
55069;SDS011;40967;52.070;8.596;2022-12-29T04:28:39;0.50;;;0.30;;
55069;SDS011;40967;52.070;8.596;2022-12-29T04:31:05;0.37;;;0.20;;
55069;SDS011;40967;52.070;8.596;2022-12-29T04:33:30;0.43;;;0.23;;
55069;SDS011;40967;52.070;8.596;2022-12-29T04:35:56;0.90;;;0.30;;
55069;SDS011;40967;52.070;8.596;2022-12-29T04:38:22;0.43;;;0.30;;
55069;SDS011;40967;52.070;8.596;2022-12-29T04:40:48;0.80;;;0.30;;
55069;SDS011;40967;52.070;8.596;2022-12-29T04:43:15;1.10;;;0.40;;
55069;SDS011;40967;52.070;8.596;2022-12-29T04:45:47;0.55;;;0.30;;
55069;SDS011;40967;52.070;8.596;2022-12-29T04:48:13;0.60;;;0.30;;
55069;SDS011;40967;52.070;8.596;2022-12-29T04:50:39;0.77;;;0.33;;
55069;SDS011;40967;52.070;8.596;2022-12-29T04:53:05;1.05;;;0.30;;
55069;SDS011;40967;52.070;8.596;2022-12-29T04:55:30;1.10;;;0.33;;
55069;SDS011;40967;52.070;8.596;2022-12-29T04:57:56;0.90;;;0.30;;
55069;SDS011;40967;52.070;8.596;2022-12-29T05:00:21;1.03;;;0.30;;
55069;SDS011;40967;52.070;8.596;2022-12-29T05:02:47;0.60;;;0.28;;
55069;SDS011;40967;52.070;8.596;2022-12-29T05:05:12;0.40;;;0.30;;
55069;SDS011;40967;52.070;8.596;2022-12-29T05:07:38;0.77;;;0.40;;
55069;SDS011;40967;52.070;8.596;2022-12-29T05:10:03;0.63;;;0.20;;
55069;SDS011;40967;52.070;8.596;2022-12-29T05:12:30;1.63;;;0.30;;
55069;SDS011;40967;52.070;8.596;2022-12-29T05:14:56;0.93;;;0.30;;
55069;SDS011;40967;52.070;8.596;2022-12-29T05:17:22;1.23;;;0.40;;
55069;SDS011;40967;52.070;8.596;2022-12-29T05:19:47;1.03;;;0.40;;
55069;SDS011;40967;52.070;8.596;2022-12-29T05:22:13;0.85;;;0.50;;
55069;SDS011;40967;52.070;8.596;2022-12-29T05:24:39;1.55;;;0.30;;
55069;SDS011;40967;52.070;8.596;2022-12-29T05:27:04;0.83;;;0.30;;
55069;SDS011;40967;52.070;8.596;2022-12-29T05:29:30;1.10;;;0.40;;
55069;SDS011;40967;52.070;8.596;2022-12-29T05:31:55;0.70;;;0.30;;
55069;SDS011;40967;52.070;8.596;2022-12-29T05:34:21;1.50;;;0.32;;
55069;SDS011;40967;52.070;8.596;2022-12-29T05:36:46;1.30;;;0.50;;
55069;SDS011;40967;52.070;8.596;2022-12-29T05:39:11;1.67;;;0.40;;
55069;SDS011;40967;52.070;8.596;2022-12-29T05:41:37;0.63;;;0.40;;
55069;SDS011;40967;52.070;8.596;2022-12-29T05:44:02;0.87;;;0.30;;
55069;SDS011;40967;52.070;8.596;2022-12-29T05:46:28;0.90;;;0.50;;
55069;SDS011;40967;52.070;8.596;2022-12-29T05:48:53;0.43;;;0.30;;
55069;SDS011;40967;52.070;8.596;2022-12-29T05:51:19;0.40;;;0.30;;
55069;SDS011;40967;52.070;8.596;2022-12-29T05:53:44;0.73;;;0.40;;
55069;SDS011;40967;52.070;8.596;2022-12-29T05:56:09;1.00;;;0.30;;
55069;SDS011;40967;52.070;8.596;2022-12-29T05:58:35;0.50;;;0.20;;
55069;SDS011;40967;52.070;8.596;2022-12-29T06:01:00;1.13;;;0.37;;
55069;SDS011;40967;52.070;8.596;2022-12-29T06:03:26;1.00;;;0.30;;
55069;SDS011;40967;52.070;8.596;2022-12-29T06:05:51;0.70;;;0.40;;
55069;SDS011;40967;52.070;8.596;2022-12-29T06:08:16;1.00;;;0.30;;
55069;SDS011;40967;52.070;8.596;2022-12-29T06:10:42;0.70;;;0.30;;
55069;SDS011;40967;52.070;8.596;2022-12-29T06:13:07;1.10;;;0.37;;
55069;SDS011;40967;52.070;8.596;2022-12-29T06:15:33;1.30;;;0.50;;
55069;SDS011;40967;52.070;8.596;2022-12-29T06:17:58;1.02;;;0.30;;
55069;SDS011;40967;52.070;8.596;2022-12-29T06:20:24;0.53;;;0.20;;
55069;SDS011;40967;52.070;8.596;2022-12-29T06:22:49;1.33;;;0.40;;
55069;SDS011;40967;52.070;8.596;2022-12-29T06:25:15;1.15;;;0.30;;
55069;SDS011;40967;52.070;8.596;2022-12-29T06:27:41;0.93;;;0.40;;
55069;SDS011;40967;52.070;8.596;2022-12-29T06:30:07;4.78;;;0.40;;
55069;SDS011;40967;52.070;8.596;2022-12-29T06:32:34;1.20;;;0.30;;
55069;SDS011;40967;52.070;8.596;2022-12-29T06:34:59;0.43;;;0.20;;
55069;SDS011;40967;52.070;8.596;2022-12-29T06:37:24;0.90;;;0.30;;
55069;SDS011;40967;52.070;8.596;2022-12-29T06:39:50;1.17;;;0.30;;
55069;SDS011;40967;52.070;8.596;2022-12-29T06:42:15;0.60;;;0.30;;
55069;SDS011;40967;52.070;8.596;2022-12-29T06:44:41;1.45;;;0.22;;
55069;SDS011;40967;52.070;8.596;2022-12-29T06:47:06;0.80;;;0.30;;
55069;SDS011;40967;52.070;8.596;2022-12-29T06:49:31;1.13;;;0.30;;
55069;SDS011;40967;52.070;8.596;2022-12-29T06:51:57;0.83;;;0.20;;
55069;SDS011;40967;52.070;8.596;2022-12-29T06:54:24;1.17;;;0.40;;
55069;SDS011;40967;52.070;8.596;2022-12-29T06:56:50;1.07;;;0.20;;
55069;SDS011;40967;52.070;8.596;2022-12-29T06:59:15;1.70;;;0.30;;
55069;SDS011;40967;52.070;8.596;2022-12-29T07:01:41;1.60;;;0.40;;
55069;SDS011;40967;52.070;8.596;2022-12-29T07:04:06;1.15;;;0.30;;
55069;SDS011;40967;52.070;8.596;2022-12-29T07:06:31;1.13;;;0.40;;
55069;SDS011;40967;52.070;8.596;2022-12-29T07:08:57;1.80;;;0.30;;
55069;SDS011;40967;52.070;8.596;2022-12-29T07:11:22;0.63;;;0.30;;
55069;SDS011;40967;52.070;8.596;2022-12-29T07:13:48;0.68;;;0.40;;
55069;SDS011;40967;52.070;8.596;2022-12-29T07:16:14;1.33;;;0.40;;
55069;SDS011;40967;52.070;8.596;2022-12-29T07:18:39;1.00;;;0.30;;
55069;SDS011;40967;52.070;8.596;2022-12-29T07:21:05;1.00;;;0.43;;
55069;SDS011;40967;52.070;8.596;2022-12-29T07:23:30;2.15;;;0.60;;
55069;SDS011;40967;52.070;8.596;2022-12-29T07:26:03;1.20;;;0.47;;
55069;SDS011;40967;52.070;8.596;2022-12-29T07:28:34;1.48;;;0.55;;
55069;SDS011;40967;52.070;8.596;2022-12-29T07:31:01;2.72;;;0.70;;
55069;SDS011;40967;52.070;8.596;2022-12-29T07:33:29;2.72;;;0.60;;
55069;SDS011;40967;52.070;8.596;2022-12-29T07:35:55;2.90;;;0.60;;
55069;SDS011;40967;52.070;8.596;2022-12-29T07:38:21;2.83;;;0.60;;
55069;SDS011;40967;52.070;8.596;2022-12-29T07:40:47;2.17;;;0.60;;
55069;SDS011;40967;52.070;8.596;2022-12-29T07:43:12;2.13;;;0.70;;
55069;SDS011;40967;52.070;8.596;2022-12-29T07:45:37;3.43;;;0.80;;
55069;SDS011;40967;52.070;8.596;2022-12-29T07:48:03;1.70;;;0.63;;
55069;SDS011;40967;52.070;8.596;2022-12-29T07:50:32;3.10;;;0.60;;
55069;SDS011;40967;52.070;8.596;2022-12-29T07:52:58;2.58;;;0.60;;
55069;SDS011;40967;52.070;8.596;2022-12-29T07:55:23;3.78;;;0.77;;
55069;SDS011;40967;52.070;8.596;2022-12-29T07:57:49;3.13;;;0.90;;
55069;SDS011;40967;52.070;8.596;2022-12-29T08:00:29;3.42;;;0.63;;
55069;SDS011;40967;52.070;8.596;2022-12-29T08:02:55;2.47;;;0.70;;
55069;SDS011;40967;52.070;8.596;2022-12-29T08:05:20;2.60;;;0.60;;
55069;SDS011;40967;52.070;8.596;2022-12-29T08:07:46;2.85;;;0.73;;
55069;SDS011;40967;52.070;8.596;2022-12-29T08:10:12;1.67;;;0.50;;
55069;SDS011;40967;52.070;8.596;2022-12-29T08:12:38;2.20;;;0.45;;
55069;SDS011;40967;52.070;8.596;2022-12-29T08:15:05;2.40;;;0.80;;
55069;SDS011;40967;52.070;8.596;2022-12-29T08:17:32;1.50;;;0.60;;
55069;SDS011;40967;52.070;8.596;2022-12-29T08:19:57;1.70;;;0.40;;
55069;SDS011;40967;52.070;8.596;2022-12-29T08:22:23;2.67;;;0.57;;
55069;SDS011;40967;52.070;8.596;2022-12-29T08:24:49;1.25;;;0.40;;
55069;SDS011;40967;52.070;8.596;2022-12-29T08:27:14;2.23;;;0.63;;
55069;SDS011;40967;52.070;8.596;2022-12-29T08:29:40;1.85;;;0.50;;
55069;SDS011;40967;52.070;8.596;2022-12-29T08:32:06;2.00;;;0.60;;
55069;SDS011;40967;52.070;8.596;2022-12-29T08:34:31;1.60;;;0.57;;
55069;SDS011;40967;52.070;8.596;2022-12-29T08:36:57;2.17;;;0.60;;
55069;SDS011;40967;52.070;8.596;2022-12-29T08:39:22;1.70;;;0.60;;
55069;SDS011;40967;52.070;8.596;2022-12-29T08:41:48;2.60;;;0.80;;
55069;SDS011;40967;52.070;8.596;2022-12-29T08:44:13;2.60;;;0.73;;
55069;SDS011;40967;52.070;8.596;2022-12-29T08:46:39;3.97;;;1.20;;
55069;SDS011;40967;52.070;8.596;2022-12-29T08:49:04;1.30;;;0.50;;
55069;SDS011;40967;52.070;8.596;2022-12-29T08:51:30;2.53;;;0.63;;
55069;SDS011;40967;52.070;8.596;2022-12-29T08:53:55;1.90;;;0.70;;
55069;SDS011;40967;52.070;8.596;2022-12-29T08:56:20;3.70;;;0.90;;
55069;SDS011;40967;52.070;8.596;2022-12-29T08:58:47;2.47;;;0.80;;
55069;SDS011;40967;52.070;8.596;2022-12-29T09:01:12;1.93;;;0.63;;
55069;SDS011;40967;52.070;8.596;2022-12-29T09:03:37;2.63;;;0.70;;
55069;SDS011;40967;52.070;8.596;2022-12-29T09:06:03;3.93;;;0.80;;
55069;SDS011;40967;52.070;8.596;2022-12-29T09:08:31;1.25;;;0.70;;
55069;SDS011;40967;52.070;8.596;2022-12-29T09:11:04;1.52;;;0.52;;
55069;SDS011;40967;52.070;8.596;2022-12-29T09:13:31;3.33;;;1.02;;
55069;SDS011;40967;52.070;8.596;2022-12-29T09:15:59;2.37;;;0.80;;
55069;SDS011;40967;52.070;8.596;2022-12-29T09:18:25;3.28;;;1.00;;
55069;SDS011;40967;52.070;8.596;2022-12-29T09:20:55;2.50;;;1.00;;
55069;SDS011;40967;52.070;8.596;2022-12-29T09:23:25;2.20;;;0.75;;
55069;SDS011;40967;52.070;8.596;2022-12-29T09:25:51;1.42;;;0.60;;
55069;SDS011;40967;52.070;8.596;2022-12-29T09:28:17;2.00;;;0.70;;
55069;SDS011;40967;52.070;8.596;2022-12-29T09:30:42;2.13;;;0.80;;
55069;SDS011;40967;52.070;8.596;2022-12-29T09:33:07;2.70;;;0.93;;
55069;SDS011;40967;52.070;8.596;2022-12-29T09:35:33;1.83;;;0.70;;
55069;SDS011;40967;52.070;8.596;2022-12-29T09:37:58;1.90;;;0.60;;
55069;SDS011;40967;52.070;8.596;2022-12-29T09:40:28;1.17;;;0.50;;
55069;SDS011;40967;52.070;8.596;2022-12-29T09:45:32;3.25;;;1.08;;
55069;SDS011;40967;52.070;8.596;2022-12-29T09:48:15;2.88;;;0.88;;
55069;SDS011;40967;52.070;8.596;2022-12-29T09:50:47;3.38;;;0.80;;
55069;SDS011;40967;52.070;8.596;2022-12-29T09:53:17;3.40;;;1.10;;
55069;SDS011;40967;52.070;8.596;2022-12-29T09:55:51;2.78;;;0.80;;
55069;SDS011;40967;52.070;8.596;2022-12-29T10:01:03;3.20;;;0.88;;
55069;SDS011;40967;52.070;8.596;2022-12-29T10:03:44;3.85;;;1.15;;
55069;SDS011;40967;52.070;8.596;2022-12-29T10:06:15;3.75;;;1.20;;
55069;SDS011;40967;52.070;8.596;2022-12-29T10:14:36;4.07;;;0.90;;
55069;SDS011;40967;52.070;8.596;2022-12-29T10:24:40;5.05;;;1.27;;
55069;SDS011;40967;52.070;8.596;2022-12-29T10:27:12;3.05;;;0.75;;
55069;SDS011;40967;52.070;8.596;2022-12-29T10:29:49;6.72;;;1.08;;
55069;SDS011;40967;52.070;8.596;2022-12-29T10:34:51;5.60;;;1.40;;
55069;SDS011;40967;52.070;8.596;2022-12-29T10:43:22;5.65;;;1.38;;
55069;SDS011;40967;52.070;8.596;2022-12-29T10:45:52;3.40;;;1.00;;
55069;SDS011;40967;52.070;8.596;2022-12-29T10:48:20;5.90;;;1.20;;
55069;SDS011;40967;52.070;8.596;2022-12-29T10:50:49;4.47;;;1.00;;
55069;SDS011;40967;52.070;8.596;2022-12-29T10:53:19;5.28;;;1.40;;
55069;SDS011;40967;52.070;8.596;2022-12-29T10:55:48;2.78;;;0.90;;
55069;SDS011;40967;52.070;8.596;2022-12-29T10:58:15;4.37;;;1.10;;
55069;SDS011;40967;52.070;8.596;2022-12-29T11:00:41;3.75;;;0.90;;
55069;SDS011;40967;52.070;8.596;2022-12-29T11:06:09;4.97;;;1.17;;
55069;SDS011;40967;52.070;8.596;2022-12-29T11:08:49;3.35;;;0.90;;
55069;SDS011;40967;52.070;8.596;2022-12-29T11:11:24;4.50;;;0.90;;
55069;SDS011;40967;52.070;8.596;2022-12-29T11:14:02;2.92;;;0.90;;
55069;SDS011;40967;52.070;8.596;2022-12-29T11:16:39;7.70;;;2.47;;
55069;SDS011;40967;52.070;8.596;2022-12-29T11:19:10;4.50;;;1.40;;
55069;SDS011;40967;52.070;8.596;2022-12-29T11:21:47;5.80;;;1.20;;
55069;SDS011;40967;52.070;8.596;2022-12-29T11:24:27;4.57;;;0.95;;
55069;SDS011;40967;52.070;8.596;2022-12-29T11:27:13;4.20;;;1.05;;
55069;SDS011;40967;52.070;8.596;2022-12-29T11:29:42;4.87;;;1.10;;
55069;SDS011;40967;52.070;8.596;2022-12-29T11:32:24;3.92;;;1.00;;
55069;SDS011;40967;52.070;8.596;2022-12-29T11:34:51;5.43;;;1.20;;
55069;SDS011;40967;52.070;8.596;2022-12-29T11:37:18;4.97;;;0.90;;
55069;SDS011;40967;52.070;8.596;2022-12-29T11:40:04;4.22;;;0.95;;
55069;SDS011;40967;52.070;8.596;2022-12-29T11:42:54;3.40;;;0.68;;
55069;SDS011;40967;52.070;8.596;2022-12-29T11:45:24;6.05;;;1.00;;
55069;SDS011;40967;52.070;8.596;2022-12-29T11:47:52;3.58;;;0.82;;
55069;SDS011;40967;52.070;8.596;2022-12-29T11:50:20;4.35;;;1.00;;
55069;SDS011;40967;52.070;8.596;2022-12-29T11:52:49;4.80;;;1.13;;
55069;SDS011;40967;52.070;8.596;2022-12-29T11:55:25;3.05;;;0.70;;
55069;SDS011;40967;52.070;8.596;2022-12-29T11:57:52;3.13;;;0.85;;
55069;SDS011;40967;52.070;8.596;2022-12-29T12:00:21;5.13;;;1.10;;
55069;SDS011;40967;52.070;8.596;2022-12-29T12:05:34;3.05;;;0.95;;
55069;SDS011;40967;52.070;8.596;2022-12-29T12:08:10;4.15;;;0.80;;
55069;SDS011;40967;52.070;8.596;2022-12-29T12:10:43;3.15;;;0.88;;
55069;SDS011;40967;52.070;8.596;2022-12-29T12:15:42;4.60;;;0.80;;
55069;SDS011;40967;52.070;8.596;2022-12-29T12:18:16;3.13;;;0.70;;
55069;SDS011;40967;52.070;8.596;2022-12-29T12:21:10;4.45;;;0.90;;
55069;SDS011;40967;52.070;8.596;2022-12-29T12:26:17;4.18;;;0.80;;
55069;SDS011;40967;52.070;8.596;2022-12-29T12:28:48;4.30;;;0.73;;
55069;SDS011;40967;52.070;8.596;2022-12-29T12:31:34;3.08;;;0.88;;
55069;SDS011;40967;52.070;8.596;2022-12-29T12:34:17;3.00;;;0.60;;
55069;SDS011;40967;52.070;8.596;2022-12-29T12:37:11;2.03;;;0.55;;
55069;SDS011;40967;52.070;8.596;2022-12-29T12:58:59;6.00;;;1.42;;
55069;SDS011;40967;52.070;8.596;2022-12-29T13:13:31;3.20;;;0.90;;
55069;SDS011;40967;52.070;8.596;2022-12-29T13:19:18;5.75;;;1.23;;
55069;SDS011;40967;52.070;8.596;2022-12-29T13:35:13;3.67;;;1.02;;
55069;SDS011;40967;52.070;8.596;2022-12-29T13:38:02;4.75;;;1.08;;
55069;SDS011;40967;52.070;8.596;2022-12-29T13:40:34;3.67;;;1.02;;
55069;SDS011;40967;52.070;8.596;2022-12-29T13:43:12;3.30;;;0.80;;
55069;SDS011;40967;52.070;8.596;2022-12-29T13:45:39;4.38;;;1.15;;
55069;SDS011;40967;52.070;8.596;2022-12-29T13:48:20;6.43;;;1.25;;
55069;SDS011;40967;52.070;8.596;2022-12-29T13:50:54;3.72;;;1.02;;
55069;SDS011;40967;52.070;8.596;2022-12-29T13:56:03;7.88;;;1.80;;
55069;SDS011;40967;52.070;8.596;2022-12-29T13:58:52;7.07;;;1.60;;
55069;SDS011;40967;52.070;8.596;2022-12-29T14:01:24;8.95;;;2.30;;
55069;SDS011;40967;52.070;8.596;2022-12-29T14:03:58;7.25;;;1.58;;
55069;SDS011;40967;52.070;8.596;2022-12-29T14:06:29;5.32;;;1.10;;
55069;SDS011;40967;52.070;8.596;2022-12-29T14:09:05;5.13;;;1.00;;
55069;SDS011;40967;52.070;8.596;2022-12-29T14:11:51;5.55;;;1.30;;
55069;SDS011;40967;52.070;8.596;2022-12-29T14:16:51;6.93;;;1.70;;
55069;SDS011;40967;52.070;8.596;2022-12-29T14:19:19;4.95;;;1.20;;
55069;SDS011;40967;52.070;8.596;2022-12-29T14:22:04;6.78;;;1.40;;
55069;SDS011;40967;52.070;8.596;2022-12-29T14:37:25;3.93;;;1.13;;
55069;SDS011;40967;52.070;8.596;2022-12-29T14:42:47;4.90;;;1.00;;
55069;SDS011;40967;52.070;8.596;2022-12-29T14:47:42;4.80;;;1.00;;
55069;SDS011;40967;52.070;8.596;2022-12-29T14:50:18;5.15;;;1.20;;
55069;SDS011;40967;52.070;8.596;2022-12-29T15:00:49;4.88;;;1.55;;
55069;SDS011;40967;52.070;8.596;2022-12-29T15:03:20;5.05;;;1.70;;
55069;SDS011;40967;52.070;8.596;2022-12-29T15:05:52;4.47;;;1.10;;
55069;SDS011;40967;52.070;8.596;2022-12-29T15:08:31;3.33;;;1.00;;
55069;SDS011;40967;52.070;8.596;2022-12-29T15:11:06;3.15;;;1.00;;
55069;SDS011;40967;52.070;8.596;2022-12-29T15:13:39;3.60;;;1.10;;
55069;SDS011;40967;52.070;8.596;2022-12-29T15:16:23;4.35;;;1.00;;
55069;SDS011;40967;52.070;8.596;2022-12-29T15:18:49;3.97;;;0.90;;
55069;SDS011;40967;52.070;8.596;2022-12-29T15:21:15;5.70;;;1.10;;
55069;SDS011;40967;52.070;8.596;2022-12-29T15:23:42;3.58;;;0.82;;
55069;SDS011;40967;52.070;8.596;2022-12-29T15:26:09;7.32;;;1.50;;
55069;SDS011;40967;52.070;8.596;2022-12-29T15:28:40;3.93;;;0.93;;
55069;SDS011;40967;52.070;8.596;2022-12-29T15:31:13;5.55;;;1.20;;
55069;SDS011;40967;52.070;8.596;2022-12-29T15:33:42;2.20;;;0.70;;
55069;SDS011;40967;52.070;8.596;2022-12-29T15:36:13;5.57;;;1.27;;
55069;SDS011;40967;52.070;8.596;2022-12-29T15:38:44;3.33;;;0.80;;
55069;SDS011;40967;52.070;8.596;2022-12-29T15:46:42;4.25;;;1.00;;
55069;SDS011;40967;52.070;8.596;2022-12-29T15:49:08;3.88;;;0.85;;
55069;SDS011;40967;52.070;8.596;2022-12-29T15:51:38;2.78;;;0.77;;
55069;SDS011;40967;52.070;8.596;2022-12-29T15:54:06;3.58;;;1.15;;
55069;SDS011;40967;52.070;8.596;2022-12-29T15:56:47;3.97;;;0.90;;
55069;SDS011;40967;52.070;8.596;2022-12-29T15:59:36;4.70;;;1.15;;
55069;SDS011;40967;52.070;8.596;2022-12-29T16:02:00;2.92;;;0.80;;
55069;SDS011;40967;52.070;8.596;2022-12-29T16:04:34;4.50;;;0.85;;
55069;SDS011;40967;52.070;8.596;2022-12-29T16:07:03;4.95;;;0.98;;
55069;SDS011;40967;52.070;8.596;2022-12-29T16:09:43;2.70;;;0.75;;
55069;SDS011;40967;52.070;8.596;2022-12-29T16:12:52;4.05;;;1.52;;
55069;SDS011;40967;52.070;8.596;2022-12-29T16:15:00;4.72;;;1.50;;
55069;SDS011;40967;52.070;8.596;2022-12-29T16:17:30;3.15;;;1.30;;
55069;SDS011;40967;52.070;8.596;2022-12-29T16:20:21;4.55;;;1.40;;
55069;SDS011;40967;52.070;8.596;2022-12-29T16:22:49;3.13;;;0.90;;
55069;SDS011;40967;52.070;8.596;2022-12-29T16:25:25;3.42;;;0.77;;
55069;SDS011;40967;52.070;8.596;2022-12-29T16:27:56;4.53;;;1.02;;
55069;SDS011;40967;52.070;8.596;2022-12-29T16:30:24;4.78;;;1.20;;
55069;SDS011;40967;52.070;8.596;2022-12-29T16:32:52;4.75;;;1.08;;
55069;SDS011;40967;52.070;8.596;2022-12-29T16:35:22;6.95;;;1.30;;
55069;SDS011;40967;52.070;8.596;2022-12-29T16:40:49;4.20;;;1.00;;
55069;SDS011;40967;52.070;8.596;2022-12-29T16:43:29;3.10;;;1.17;;
55069;SDS011;40967;52.070;8.596;2022-12-29T16:48:28;3.07;;;1.00;;
55069;SDS011;40967;52.070;8.596;2022-12-29T16:51:03;2.65;;;0.90;;
55069;SDS011;40967;52.070;8.596;2022-12-29T16:53:32;2.80;;;0.90;;
55069;SDS011;40967;52.070;8.596;2022-12-29T16:56:22;3.67;;;1.05;;
55069;SDS011;40967;52.070;8.596;2022-12-29T16:58:50;3.20;;;0.60;;
55069;SDS011;40967;52.070;8.596;2022-12-29T17:01:25;4.15;;;0.80;;
55069;SDS011;40967;52.070;8.596;2022-12-29T17:03:51;3.53;;;0.75;;
55069;SDS011;40967;52.070;8.596;2022-12-29T17:06:20;6.03;;;1.23;;
55069;SDS011;40967;52.070;8.596;2022-12-29T17:08:49;4.85;;;0.98;;
55069;SDS011;40967;52.070;8.596;2022-12-29T17:11:33;4.33;;;0.80;;
55069;SDS011;40967;52.070;8.596;2022-12-29T17:17:05;5.07;;;1.00;;
55069;SDS011;40967;52.070;8.596;2022-12-29T17:19:51;4.37;;;0.97;;
55069;SDS011;40967;52.070;8.596;2022-12-29T17:22:25;9.52;;;1.90;;
55069;SDS011;40967;52.070;8.596;2022-12-29T17:24:54;5.22;;;1.38;;
55069;SDS011;40967;52.070;8.596;2022-12-29T17:27:32;5.47;;;1.33;;
55069;SDS011;40967;52.070;8.596;2022-12-29T17:30:05;3.08;;;1.05;;
55069;SDS011;40967;52.070;8.596;2022-12-29T17:32:36;3.30;;;1.10;;
55069;SDS011;40967;52.070;8.596;2022-12-29T17:35:03;3.47;;;1.00;;
55069;SDS011;40967;52.070;8.596;2022-12-29T17:37:30;4.70;;;0.93;;
55069;SDS011;40967;52.070;8.596;2022-12-29T17:39:57;3.38;;;0.90;;
55069;SDS011;40967;52.070;8.596;2022-12-29T17:42:22;2.60;;;0.70;;
55069;SDS011;40967;52.070;8.596;2022-12-29T17:44:48;2.10;;;1.00;;
55069;SDS011;40967;52.070;8.596;2022-12-29T17:47:13;4.03;;;1.17;;
55069;SDS011;40967;52.070;8.596;2022-12-29T17:49:40;3.83;;;1.15;;
55069;SDS011;40967;52.070;8.596;2022-12-29T17:52:10;3.20;;;1.20;;
55069;SDS011;40967;52.070;8.596;2022-12-29T17:54:37;2.67;;;1.00;;